Time;durP1;ratioP1;P1;durP2;ratioP2;P2;SDS_P1;SDS_P2;PMS_P1;PMS_P2;Temp;Humidity;BMP_temperature;BMP_pressure;BME280_temperature;BME280_humidity;BME280_pressure;Samples;Min_cycle;Max_cycle;Signal;HPM_P1;HPM_P2
2022/12/10 00:00:08;;;;;;;28.15;16.05;;;;;;;3.11;77.11;98381.25;339526;29;1227;-75
2022/12/10 00:00:20;;;;;;;30.23;15.80;;;;;;;3.12;77.07;98382.09;340554;29;1191;-75
2022/12/10 00:00:32;;;;;;;29.38;15.13;;;;;;;3.12;77.03;98377.81;338796;29;1703;-75
2022/12/10 00:00:44;;;;;;;26.77;15.05;;;;;;;3.13;77.15;98371.78;338591;29;1233;-75
2022/12/10 00:01:07;;;;;;;24.67;14.65;;;;;;;3.17;76.67;98375.13;339893;29;1067;-77
2022/12/10 00:01:19;;;;;;;27.38;15.23;;;;;;;3.17;76.73;98373.41;340128;29;1153;-74
2022/12/10 00:01:33;;;;;;;27.85;15.30;;;;;;;3.19;77.10;98379.34;340303;29;1610;-78
2022/12/10 00:01:47;;;;;;;26.98;15.32;;;;;;;3.20;77.08;98375.91;340095;29;1020;-75
2022/12/10 00:02:00;;;;;;;25.25;15.25;;;;;;;3.22;76.84;98383.59;340852;29;1269;-75
2022/12/10 00:02:12;;;;;;;24.85;15.18;;;;;;;3.22;76.83;98377.59;340517;28;1678;-76
2022/12/10 00:02:24;;;;;;;25.75;15.93;;;;;;;3.22;77.16;98377.59;340888;29;1101;-76
2022/12/10 00:02:36;;;;;;;27.52;16.05;;;;;;;3.23;77.12;98382.69;340859;29;1075;-77
2022/12/10 00:02:48;;;;;;;28.38;15.98;;;;;;;3.25;76.97;98382.66;340595;28;1744;-78
2022/12/10 00:03:01;;;;;;;27.27;15.63;;;;;;;3.22;76.87;98373.31;341735;29;874;-75
2022/12/10 00:03:13;;;;;;;29.00;16.02;;;;;;;3.22;76.90;98378.44;340940;29;1080;-76
2022/12/10 00:03:25;;;;;;;29.90;16.90;;;;;;;3.22;77.13;98380.16;341714;28;1480;-75
2022/12/10 00:03:38;;;;;;;30.13;16.90;;;;;;;3.18;76.62;98379.41;340040;29;1970;-76
2022/12/10 00:03:51;;;;;;;29.95;16.45;;;;;;;3.20;76.51;98375.91;340651;29;1068;-77
2022/12/10 00:04:03;;;;;;;30.80;16.67;;;;;;;3.17;76.91;98380.28;341006;29;1051;-75
2022/12/10 00:04:16;;;;;;;30.27;16.88;;;;;;;3.11;76.71;98381.25;340872;29;1107;-77
2022/12/10 00:04:28;;;;;;;29.40;16.98;;;;;;;3.09;76.77;98377.88;339512;29;1552;-77
2022/12/10 00:04:40;;;;;;;28.70;16.90;;;;;;;3.10;76.60;98374.44;339287;29;1024;-80
2022/12/10 00:05:00;;;;;;;30.52;17.25;;;;;;;3.10;76.80;98383.84;339814;29;1561;-76
2022/12/10 00:05:12;;;;;;;28.85;16.95;;;;;;;3.08;76.94;98381.34;341089;29;1678;-75
2022/12/10 00:05:24;;;;;;;26.58;16.13;;;;;;;3.09;77.16;98382.16;340150;28;2083;-74
2022/12/10 00:05:36;;;;;;;27.27;16.08;;;;;;;3.08;76.74;98381.34;341521;28;1425;-78
2022/12/10 00:05:48;;;;;;;27.52;16.50;;;;;;;3.07;77.00;98377.06;341572;28;1074;-78
2022/12/10 00:06:02;;;;;;;27.00;16.30;;;;;;;3.07;77.14;98374.50;340798;28;1743;-77
2022/12/10 00:06:17;;;;;;;26.25;16.00;;;;;;;3.08;77.26;98381.34;341119;28;1273;-76
2022/12/10 00:06:33;;;;;;;26.38;15.55;;;;;;;3.10;77.30;98378.72;341269;29;1101;-77
2022/12/10 00:06:45;;;;;;;25.77;14.93;;;;;;;3.12;76.80;98382.09;341008;29;1770;-75
2022/12/10 00:06:57;;;;;;;25.25;14.45;;;;;;;3.14;77.15;98378.63;341263;29;1003;-74
2022/12/10 00:07:09;;;;;;;23.45;14.00;;;;;;;3.15;77.30;98377.72;341591;28;1762;-75
2022/12/10 00:07:22;;;;;;;22.88;14.07;;;;;;;3.15;76.86;98376.91;341534;28;1169;-74
2022/12/10 00:07:35;;;;;;;24.83;14.77;;;;;;;3.17;77.33;98375.97;340435;28;1866;-74
2022/12/10 00:07:47;;;;;;;26.10;15.50;;;;;;;3.18;76.91;98379.41;340898;29;1111;-75
2022/12/10 00:07:59;;;;;;;24.13;15.13;;;;;;;3.20;76.97;98381.06;340916;29;1220;-74
2022/12/10 00:08:11;;;;;;;23.80;14.73;;;;;;;3.22;76.79;98382.72;340749;28;1711;-74
2022/12/10 00:08:24;;;;;;;23.63;14.38;;;;;;;3.24;77.19;98378.41;340033;29;1196;-76
2022/12/10 00:08:36;;;;;;;23.73;14.52;;;;;;;3.24;76.84;98371.56;340511;29;1064;-79
2022/12/10 00:08:49;;;;;;;24.08;14.25;;;;;;;3.26;76.68;98381.78;340931;29;1019;-79
2022/12/10 00:09:03;;;;;;;22.35;13.80;;;;;;;3.27;76.79;98371.47;340733;29;1058;-75
2022/12/10 00:09:17;;;;;;;21.90;13.95;;;;;;;3.31;77.05;98379.94;338227;28;3194;-74
2022/12/10 00:09:29;;;;;;;22.77;14.15;;;;;;;3.30;76.48;98380.81;339799;28;2017;-80
2022/12/10 00:09:41;;;;;;;22.73;14.50;;;;;;;3.32;76.43;98384.19;340971;29;1194;-74
2022/12/10 00:09:53;;;;;;;21.73;14.13;;;;;;;3.32;76.63;98376.50;341131;29;2738;-75
2022/12/10 00:10:07;;;;;;;22.02;14.07;;;;;;;3.34;76.58;98374.72;341197;29;1126;-74
2022/12/10 00:10:22;;;;;;;23.65;14.02;;;;;;;3.35;76.55;98368.72;338193;29;1786;-76
2022/12/10 00:10:34;;;;;;;23.77;13.98;;;;;;;3.36;76.43;98376.41;341433;28;1778;-75
2022/12/10 00:10:45;;;;;;;24.05;14.27;;;;;;;3.37;76.32;98377.22;341074;29;1059;-77
2022/12/10 00:10:57;;;;;;;23.63;14.13;;;;;;;3.38;76.67;98373.78;340751;29;1219;-77
2022/12/10 00:11:11;;;;;;;23.98;14.05;;;;;;;3.38;76.37;98374.63;339747;29;1248;-75
2022/12/10 00:11:24;;;;;;;23.77;13.75;;;;;;;3.40;76.25;98372.00;340689;29;1224;-78
2022/12/10 00:11:36;;;;;;;23.70;13.77;;;;;;;3.41;76.06;98373.72;340887;29;1492;-77
2022/12/10 00:11:48;;;;;;;23.92;14.23;;;;;;;3.44;76.22;98377.91;339734;29;1488;-80
2022/12/10 00:12:00;;;;;;;23.90;13.90;;;;;;;3.44;76.19;98371.09;341250;29;761;-74
2022/12/10 00:12:12;;;;;;;23.40;13.70;;;;;;;3.44;75.88;98373.66;341023;29;1115;-75
2022/12/10 00:12:24;;;;;;;22.55;13.43;;;;;;;3.44;76.36;98373.66;340946;29;1515;-75
2022/12/10 00:12:36;;;;;;;22.25;13.15;;;;;;;3.46;75.73;98377.03;339647;28;1888;-77
2022/12/10 00:12:48;;;;;;;24.10;13.07;;;;;;;3.46;76.32;98377.03;341076;29;1019;-76
2022/12/10 00:13:00;;;;;;;25.58;13.52;;;;;;;3.46;76.15;98371.88;340194;29;1618;-78
2022/12/10 00:13:12;;;;;;;25.05;14.05;;;;;;;3.49;76.34;98371.78;340931;29;1087;-77
2022/12/10 00:13:24;;;;;;;22.45;14.05;;;;;;;3.43;75.87;98369.38;341411;29;1117;-79
2022/12/10 00:13:37;;;;;;;23.90;14.05;;;;;;;3.43;75.78;98377.09;340805;29;1604;-80
2022/12/10 00:13:50;;;;;;;23.30;13.80;;;;;;;3.44;76.24;98368.50;339714;29;1269;-74
2022/12/10 00:14:02;;;;;;;22.77;13.77;;;;;;;3.47;75.73;98383.00;340130;29;1816;-78
2022/12/10 00:14:14;;;;;;;22.67;13.60;;;;;;;3.46;75.75;98377.03;339882;29;1263;-78
2022/12/10 00:14:26;;;;;;;21.98;13.00;;;;;;;3.46;75.74;98374.47;339497;29;1109;-75
2022/12/10 00:14:38;;;;;;;20.75;12.77;;;;;;;3.46;75.75;98379.59;340320;28;1562;-76
2022/12/10 00:14:50;;;;;;;22.63;13.07;;;;;;;3.46;75.47;98382.16;340843;28;1768;-76
2022/12/10 00:15:02;;;;;;;23.38;13.50;;;;;;;3.46;75.74;98374.47;341726;28;1570;-79
2022/12/10 00:15:16;;;;;;;24.10;14.10;;;;;;;3.44;75.88;98376.22;341093;28;1629;-75
2022/12/10 00:15:27;;;;;;;23.05;13.85;;;;;;;3.46;75.56;98377.03;339474;29;1093;-76
2022/12/10 00:15:39;;;;;;;21.90;13.63;;;;;;;3.44;75.96;98378.78;339595;29;1355;-74
2022/12/10 00:15:51;;;;;;;22.27;13.82;;;;;;;3.44;76.09;98380.50;340275;28;1707;-74
2022/12/10 00:16:06;;;;;;;23.13;14.25;;;;;;;3.45;75.63;98380.47;342858;28;1154;-74
2022/12/10 00:16:21;;;;;;;25.85;14.10;;;;;;;3.37;76.05;98377.22;341511;28;1750;-75
2022/12/10 00:16:34;;;;;;;27.38;14.70;;;;;;;3.34;76.08;98382.44;342045;28;1683;-74
2022/12/10 00:16:46;;;;;;;24.80;14.57;;;;;;;3.34;75.72;98379.84;342382;28;1115;-78
2022/12/10 00:16:58;;;;;;;23.02;13.75;;;;;;;3.30;76.31;98380.81;342244;28;1708;-76
2022/12/10 00:17:10;;;;;;;22.73;13.70;;;;;;;3.23;76.07;98382.69;343355;28;1065;-77
2022/12/10 00:17:24;;;;;;;23.85;14.20;;;;;;;3.28;76.10;98380.00;342303;28;1175;-75
2022/12/10 00:17:36;;;;;;;25.60;14.52;;;;;;;3.26;76.04;98374.06;340838;29;1215;-77
2022/12/10 00:17:48;;;;;;;25.58;14.73;;;;;;;3.17;75.83;98378.53;341087;29;1047;-78
2022/12/10 00:18:00;;;;;;;23.77;14.82;;;;;;;3.17;76.31;98383.66;340679;28;1737;-79
2022/12/10 00:18:12;;;;;;;24.25;15.23;;;;;;;3.17;76.28;98375.97;340509;29;1357;-77
2022/12/10 00:18:25;;;;;;;25.52;15.25;;;;;;;3.19;76.28;98376.78;340773;29;1272;-81
2022/12/10 00:18:38;;;;;;;29.30;14.65;;;;;;;3.19;76.42;98379.34;341270;29;1108;-76
2022/12/10 00:18:51;;;;;;;28.98;14.20;;;;;;;3.19;76.30;98379.34;340636;29;1028;-77
2022/12/10 00:19:04;;;;;;;25.80;14.40;;;;;;;3.20;76.17;98375.91;340732;29;1183;-74
2022/12/10 00:19:16;;;;;;;26.80;14.98;;;;;;;3.19;76.67;98371.63;340574;28;1731;-77
2022/12/10 00:19:28;;;;;;;26.60;15.43;;;;;;;3.18;76.52;98376.84;340816;29;1008;-78
2022/12/10 00:19:40;;;;;;;24.92;15.23;;;;;;;3.23;75.98;98379.28;341441;28;1040;-79
2022/12/10 00:19:52;;;;;;;24.40;14.98;;;;;;;3.24;76.20;98380.97;341400;29;738;-77
2022/12/10 00:20:05;;;;;;;26.17;14.52;;;;;;;3.19;76.08;98381.91;340865;29;1015;-77
2022/12/10 00:20:17;;;;;;;27.63;14.68;;;;;;;3.20;76.47;98375.91;339114;29;1631;-75
2022/12/10 00:20:29;;;;;;;27.83;14.98;;;;;;;3.19;76.03;98379.34;339148;29;1792;-78
2022/12/10 00:20:41;;;;;;;25.55;14.68;;;;;;;3.18;76.29;98374.28;338235;29;1120;-74
2022/12/10 00:20:54;;;;;;;24.38;14.15;;;;;;;3.19;76.43;98379.34;338141;29;1051;-75
2022/12/10 00:21:10;;;;;;;24.50;14.38;;;;;;;3.19;76.31;98375.94;337695;29;2064;-75
2022/12/10 00:21:28;;;;;;;24.92;14.75;;;;;;;3.17;76.76;98380.28;338258;29;1702;-74
2022/12/10 00:21:42;;;;;;;25.90;14.93;;;;;;;3.20;76.43;98381.06;337697;29;1575;-79
2022/12/10 00:21:55;;;;;;;27.80;15.02;;;;;;;3.24;76.50;98380.97;338556;29;2015;-76
2022/12/10 00:22:07;;;;;;;27.98;15.10;;;;;;;3.24;76.59;98380.97;338157;29;1131;-74
2022/12/10 00:22:20;;;;;;;27.08;15.32;;;;;;;3.23;76.24;98375.00;338962;29;1580;-77
2022/12/10 00:22:32;;;;;;;25.55;15.43;;;;;;;3.24;76.13;98380.97;340552;28;1964;-79
2022/12/10 00:22:44;;;;;;;28.58;15.25;;;;;;;3.24;76.54;98378.41;341390;28;1408;-74
2022/12/10 00:22:56;;;;;;;28.75;15.27;;;;;;;3.23;76.59;98381.84;342006;28;1767;-77
2022/12/10 00:23:08;;;;;;;27.83;15.10;;;;;;;3.25;76.23;98377.53;342579;28;753;-78
2022/12/10 00:23:20;;;;;;;26.67;14.75;;;;;;;3.23;76.36;98379.28;342069;28;1210;-74
2022/12/10 00:23:35;;;;;;;28.30;14.57;;;;;;;3.22;75.88;98378.44;341231;28;1621;-76
2022/12/10 00:23:48;;;;;;;25.35;14.15;;;;;;;3.23;76.15;98379.28;340101;29;1124;-75
2022/12/10 00:24:00;;;;;;;25.65;14.13;;;;;;;3.20;76.27;98380.22;340672;29;1028;-77
2022/12/10 00:24:13;;;;;;;24.92;14.43;;;;;;;3.19;76.06;98379.34;340619;29;1201;-77
2022/12/10 00:24:25;;;;;;;24.52;14.63;;;;;;;3.20;76.05;98381.06;340971;29;1403;-75
2022/12/10 00:24:37;;;;;;;24.73;14.68;;;;;;;3.20;76.29;98380.22;340782;29;1845;-76
2022/12/10 00:24:49;;;;;;;24.45;14.55;;;;;;;3.20;76.58;98381.06;338373;29;1596;-74
2022/12/10 00:25:02;;;;;;;24.90;14.23;;;;;;;3.21;76.54;98381.88;339855;29;1732;-75
2022/12/10 00:25:14;;;;;;;25.95;14.45;;;;;;;3.23;76.58;98379.28;338031;29;4043;-78
2022/12/10 00:25:26;;;;;;;25.10;14.60;;;;;;;3.24;75.95;98380.97;339575;29;2792;-74
2022/12/10 00:25:39;;;;;;;24.52;14.82;;;;;;;3.27;75.76;98380.91;339633;29;1432;-74
2022/12/10 00:25:50;;;;;;;24.30;14.48;;;;;;;3.25;76.06;98380.94;340167;29;2362;-75
2022/12/10 00:26:23;;;;;;;23.65;14.00;;;;;;;3.27;75.70;98386.88;338670;29;1128;-75
2022/12/10 00:26:39;;;;;;;24.45;14.38;;;;;;;3.19;76.08;98381.91;339977;29;1787;-71
2022/12/10 00:26:51;;;;;;;25.38;14.35;;;;;;;3.23;76.22;98379.28;339163;28;1703;-72
2022/12/10 00:27:03;;;;;;;23.40;13.93;;;;;;;3.25;76.16;98377.53;339479;29;1595;-73
2022/12/10 00:27:15;;;;;;;23.35;13.95;;;;;;;3.26;76.44;98379.19;339177;29;1112;-76
2022/12/10 00:27:28;;;;;;;23.60;13.82;;;;;;;3.28;76.20;98378.31;339376;29;2047;-76
2022/12/10 00:27:40;;;;;;;24.15;14.15;;;;;;;3.29;76.20;98379.16;339535;29;1503;-74
2022/12/10 00:27:52;;;;;;;24.50;14.50;;;;;;;3.30;75.87;98380.81;339773;29;1615;-79
2022/12/10 00:28:04;;;;;;;24.60;14.57;;;;;;;3.31;76.53;98385.09;340817;29;1613;-76
2022/12/10 00:28:16;;;;;;;23.90;14.32;;;;;;;3.31;76.27;98379.94;340913;29;1408;-76
2022/12/10 00:28:28;;;;;;;22.60;14.15;;;;;;;3.33;76.09;98380.75;338298;29;1188;-78
2022/12/10 00:28:42;;;;;;;21.80;13.93;;;;;;;3.34;76.25;98374.72;339223;29;1250;-78
2022/12/10 00:28:55;;;;;;;22.30;14.05;;;;;;;3.34;76.02;98382.44;339957;29;1180;-79
2022/12/10 00:29:11;;;;;;;22.73;14.07;;;;;;;3.37;75.88;98382.38;342590;28;1942;-74
2022/12/10 00:29:23;;;;;;;23.20;14.10;;;;;;;3.38;76.05;98381.47;341328;28;1306;-76
2022/12/10 00:29:36;;;;;;;24.02;14.57;;;;;;;3.39;75.67;98380.59;340958;29;1301;-74
2022/12/10 00:29:48;;;;;;;23.27;14.57;;;;;;;3.41;76.10;98381.41;341207;29;1044;-75
2022/12/10 00:30:00;;;;;;;23.52;14.38;;;;;;;3.42;75.91;98380.56;341066;29;1242;-74
2022/12/10 00:30:12;;;;;;;24.65;13.88;;;;;;;3.42;75.99;98380.56;340570;28;1855;-74
2022/12/10 00:30:24;;;;;;;25.52;13.57;;;;;;;3.44;75.66;98383.94;341144;28;1199;-74
2022/12/10 00:30:36;;;;;;;23.85;13.75;;;;;;;3.46;75.88;98381.28;341006;29;1180;-76
2022/12/10 00:30:48;;;;;;;23.40;13.73;;;;;;;3.47;76.00;98388.13;340912;29;1199;-75
2022/12/10 00:31:17;;;;;;;23.50;14.25;;;;;;;3.46;75.78;98392.44;340963;29;1023;-76
2022/12/10 00:31:33;;;;;;;27.10;14.95;;;;;;;3.43;76.00;98382.22;340476;29;1889;-75
2022/12/10 00:31:45;;;;;;;26.23;14.85;;;;;;;3.44;75.70;98386.50;341324;29;1206;-76
2022/12/10 00:31:57;;;;;;;24.67;14.55;;;;;;;3.45;75.72;98385.59;341737;28;1601;-78
2022/12/10 00:32:09;;;;;;;24.23;14.30;;;;;;;3.46;75.42;98386.44;340129;28;1697;-76
2022/12/10 00:32:23;;;;;;;23.83;14.27;;;;;;;3.47;75.83;98383.84;340808;29;1373;-74
2022/12/10 00:32:35;;;;;;;24.67;14.65;;;;;;;3.49;75.44;98392.34;340736;29;1073;-76
2022/12/10 00:32:47;;;;;;;25.55;14.48;;;;;;;3.49;75.80;98376.94;340433;28;1784;-76
2022/12/10 00:32:59;;;;;;;24.85;14.02;;;;;;;3.50;75.86;98382.91;340919;28;1040;-74
2022/12/10 00:33:11;;;;;;;23.40;13.82;;;;;;;3.51;75.64;98384.59;342207;28;1280;-74
2022/12/10 00:33:24;;;;;;;24.33;14.13;;;;;;;3.51;75.65;98380.31;340805;28;1822;-74
2022/12/10 00:33:36;;;;;;;23.33;13.80;;;;;;;3.52;75.85;98387.16;342130;28;1059;-75
2022/12/10 00:33:48;;;;;;;23.20;13.90;;;;;;;3.51;75.55;98380.31;342360;28;1227;-77
2022/12/10 00:34:06;;;;;;;24.20;14.05;;;;;;;3.53;75.25;98381.13;340366;28;1686;-79
2022/12/10 00:34:18;;;;;;;23.65;13.93;;;;;;;3.54;75.53;98385.38;341075;29;1467;-80
2022/12/10 00:34:31;;;;;;;23.40;13.80;;;;;;;3.55;75.60;98389.63;339885;28;1677;-79
2022/12/10 00:34:43;;;;;;;23.52;13.50;;;;;;;3.57;75.39;98387.03;340069;28;1756;-76
2022/12/10 00:34:55;;;;;;;24.10;13.48;;;;;;;3.56;75.03;98383.63;339636;29;1107;-77
2022/12/10 00:35:08;;;;;;;23.77;13.98;;;;;;;3.58;75.27;98386.13;339906;29;1201;-75
2022/12/10 00:35:21;;;;;;;23.33;14.05;;;;;;;3.59;75.37;98388.66;339621;29;1279;-75
2022/12/10 00:35:36;;;;;;;23.60;14.13;;;;;;;3.58;75.12;98387.00;339252;29;1664;-76
2022/12/10 00:35:48;;;;;;;22.75;13.88;;;;;;;3.59;75.02;98388.66;340918;29;1167;-74
2022/12/10 00:36:34;;;;;;;23.63;13.70;;;;;;;3.62;74.77;98386.91;339700;29;1065;-75
2022/12/10 00:36:48;;;;;;;23.95;13.90;;;;;;;3.63;74.83;98383.47;338574;29;1718;-74
2022/12/10 00:37:00;;;;;;;22.15;13.70;;;;;;;3.61;75.06;98386.06;338766;29;1343;-75
2022/12/10 00:37:12;;;;;;;21.77;13.75;;;;;;;3.62;75.20;98385.16;339198;29;1221;-78
2022/12/10 00:37:24;;;;;;;24.52;14.55;;;;;;;3.57;75.12;98380.16;339853;28;1427;-78
2022/12/10 00:37:36;;;;;;;24.90;14.45;;;;;;;3.60;74.92;98386.94;340918;29;1031;-78
2022/12/10 00:37:48;;;;;;;24.08;13.82;;;;;;;3.60;75.20;98390.38;341377;28;2048;-74
2022/12/10 00:38:00;;;;;;;22.77;13.60;;;;;;;3.63;74.93;98388.59;342155;28;1051;-74
2022/12/10 00:38:12;;;;;;;21.98;13.45;;;;;;;3.64;75.41;98387.72;342216;28;1310;-74
2022/12/10 00:38:24;;;;;;;21.40;12.82;;;;;;;3.66;74.54;98384.22;340675;28;1219;-75
2022/12/10 00:38:36;;;;;;;21.45;12.57;;;;;;;3.67;75.02;98391.06;341049;29;1091;-74
2022/12/10 00:38:49;;;;;;;22.80;12.73;;;;;;;3.67;75.09;98391.06;340549;29;1817;-79
2022/12/10 00:39:01;;;;;;;24.37;13.40;;;;;;;3.67;75.04;98390.22;340846;28;1361;-78
2022/12/10 00:39:16;;;;;;;23.02;13.43;;;;;;;3.67;75.33;98385.09;342277;28;1243;-74
2022/12/10 00:39:28;;;;;;;22.55;13.23;;;;;;;3.68;75.21;98386.75;340861;28;1408;-82
2022/12/10 00:39:40;;;;;;;21.33;12.55;;;;;;;3.68;74.56;98386.75;341484;28;1708;-78
2022/12/10 00:39:52;;;;;;;22.58;13.18;;;;;;;3.69;74.60;98388.47;340066;28;1831;-80
2022/12/10 00:40:05;;;;;;;22.13;13.02;;;;;;;3.69;75.13;98385.88;340774;28;1181;-74
2022/12/10 00:40:17;;;;;;;22.40;13.05;;;;;;;3.69;75.11;98385.88;341582;28;1557;-75
2022/12/10 00:40:29;;;;;;;21.55;12.98;;;;;;;3.68;74.71;98391.88;342212;28;1339;-77
2022/12/10 00:40:41;;;;;;;22.30;12.90;;;;;;;3.68;74.64;98391.88;342156;28;1051;-75
2022/12/10 00:40:53;;;;;;;24.67;13.43;;;;;;;3.68;74.54;98391.88;341272;29;742;-75
2022/12/10 00:41:05;;;;;;;23.45;13.48;;;;;;;3.68;75.27;98386.75;340479;28;2061;-75
2022/12/10 00:41:18;;;;;;;22.50;12.73;;;;;;;3.68;74.79;98394.47;341115;29;1216;-74
2022/12/10 00:41:30;;;;;;;21.63;12.45;;;;;;;3.66;74.82;98389.34;340680;29;2096;-76
2022/12/10 00:41:42;;;;;;;22.90;13.18;;;;;;;3.62;74.50;98392.88;340835;29;1576;-75
2022/12/10 00:41:54;;;;;;;24.02;14.30;;;;;;;3.61;74.51;98386.06;340745;29;952;-75
2022/12/10 00:42:06;;;;;;;24.35;14.52;;;;;;;3.59;74.66;98388.66;339238;29;1912;-74
2022/12/10 00:42:18;;;;;;;23.08;14.02;;;;;;;3.57;74.57;98387.03;338951;29;1280;-75
2022/12/10 00:42:30;;;;;;;22.15;13.80;;;;;;;3.53;75.10;98391.38;337836;29;4266;-78
2022/12/10 00:42:42;;;;;;;22.10;13.57;;;;;;;3.50;75.05;98388.91;339501;29;3118;-74
2022/12/10 00:42:54;;;;;;;23.83;13.68;;;;;;;3.47;75.13;98386.41;341316;28;1422;-77
2022/12/10 00:43:06;;;;;;;23.20;13.60;;;;;;;3.44;75.26;98389.06;341129;29;1123;-74
2022/12/10 00:43:18;;;;;;;22.87;13.80;;;;;;;3.38;75.16;98386.59;340535;29;1598;-75
2022/12/10 00:43:30;;;;;;;23.10;13.93;;;;;;;3.34;74.75;98390.13;341995;28;1606;-74
2022/12/10 00:43:43;;;;;;;22.83;13.80;;;;;;;3.30;75.28;98396.22;340825;29;1059;-74
2022/12/10 00:43:55;;;;;;;23.52;13.75;;;;;;;3.27;75.42;98392.00;341265;29;810;-76
2022/12/10 00:44:07;;;;;;;25.05;13.90;;;;;;;3.25;75.11;98388.63;340808;29;1188;-75
2022/12/10 00:44:19;;;;;;;25.20;13.90;;;;;;;3.26;75.61;98389.47;341195;28;1610;-72
2022/12/10 00:44:32;;;;;;;24.55;13.57;;;;;;;3.26;75.51;98390.34;341211;28;2540;-73
2022/12/10 00:44:45;;;;;;;25.65;13.63;;;;;;;3.27;76.25;98393.75;341485;28;1239;-77
2022/12/10 00:44:56;;;;;;;25.58;13.85;;;;;;;3.26;75.86;98394.59;341855;28;1245;-76
2022/12/10 00:45:08;;;;;;;22.85;13.85;;;;;;;3.25;75.99;98387.81;341310;28;1035;-77
2022/12/10 00:45:20;;;;;;;23.17;14.13;;;;;;;3.26;76.14;98385.19;340775;28;1700;-77
2022/12/10 00:45:32;;;;;;;22.75;13.73;;;;;;;3.28;75.95;98390.28;342647;28;1128;-77
2022/12/10 00:45:44;;;;;;;22.83;13.77;;;;;;;3.30;75.92;98391.09;342469;28;1156;-74
2022/12/10 00:45:57;;;;;;;22.77;13.68;;;;;;;3.33;75.68;98396.16;341497;28;1256;-74
2022/12/10 00:46:10;;;;;;;23.33;13.75;;;;;;;3.33;75.74;98388.47;340897;28;1718;-77
2022/12/10 00:46:22;;;;;;;23.50;13.48;;;;;;;3.35;75.75;98394.41;340482;28;1585;-76
2022/12/10 00:46:34;;;;;;;23.52;13.60;;;;;;;3.37;75.68;98392.66;341044;28;1466;-77
2022/12/10 00:46:46;;;;;;;23.83;13.82;;;;;;;3.37;75.62;98387.50;340916;28;1570;-74
2022/12/10 00:46:59;;;;;;;22.10;13.80;;;;;;;3.39;75.78;98385.75;341057;28;1658;-77
2022/12/10 00:47:12;;;;;;;21.90;13.35;;;;;;;3.41;75.70;98383.97;341446;28;1941;-78
2022/12/10 00:47:24;;;;;;;22.65;13.43;;;;;;;3.42;75.62;98393.41;342049;28;1303;-76
2022/12/10 00:47:36;;;;;;;24.17;14.05;;;;;;;3.42;75.49;98395.97;341827;28;1328;-74
2022/12/10 00:47:48;;;;;;;24.13;14.40;;;;;;;3.43;75.41;98387.34;342420;28;1462;-74
2022/12/10 00:48:01;;;;;;;24.17;14.13;;;;;;;3.44;75.44;98383.94;341493;28;1116;-75
2022/12/10 00:48:13;;;;;;;24.40;13.77;;;;;;;3.44;75.43;98389.06;340783;29;1114;-74
2022/12/10 00:48:25;;;;;;;22.52;13.93;;;;;;;3.46;75.54;98389.88;339836;29;1634;-76
2022/12/10 00:48:38;;;;;;;22.95;14.20;;;;;;;3.46;75.56;98391.56;338835;29;2702;-75
2022/12/10 00:48:51;;;;;;;22.98;14.00;;;;;;;3.47;75.58;98391.53;339710;29;1686;-74
2022/12/10 00:49:03;;;;;;;21.52;13.55;;;;;;;3.49;75.42;98388.94;340223;29;1080;-75
2022/12/10 00:49:15;;;;;;;20.15;12.68;;;;;;;3.51;75.38;98385.44;339475;29;1283;-77
2022/12/10 00:49:27;;;;;;;19.35;12.20;;;;;;;3.51;75.27;98385.44;338924;29;1802;-77
2022/12/10 00:49:39;;;;;;;20.23;12.57;;;;;;;3.53;75.04;98393.13;340810;29;1047;-77
2022/12/10 00:49:51;;;;;;;20.45;12.60;;;;;;;3.54;74.94;98389.66;340209;28;1701;-76
2022/12/10 00:50:03;;;;;;;21.70;13.00;;;;;;;3.51;74.98;98384.59;341570;29;1579;-77
2022/12/10 00:50:15;;;;;;;23.92;13.82;;;;;;;3.49;75.06;98388.94;340367;29;1868;-76
2022/12/10 00:50:27;;;;;;;24.48;14.38;;;;;;;3.45;75.02;98388.16;341885;28;1758;-75
2022/12/10 00:50:39;;;;;;;22.17;13.95;;;;;;;3.45;75.56;98390.72;342265;28;1072;-77
2022/12/10 00:51:13;;;;;;;23.27;14.32;;;;;;;3.42;75.73;98388.25;341922;28;1902;-77
2022/12/10 00:51:26;;;;;;;21.80;13.32;;;;;;;3.42;75.35;98390.81;341059;28;1187;-73
2022/12/10 00:51:38;;;;;;;21.63;13.02;;;;;;;3.42;75.66;98390.81;340984;29;780;-73
2022/12/10 00:51:50;;;;;;;22.50;13.50;;;;;;;3.40;75.87;98395.13;340594;29;1762;-75
2022/12/10 00:52:02;;;;;;;24.27;13.75;;;;;;;3.40;75.63;98395.13;340998;29;1086;-72
2022/12/10 00:52:14;;;;;;;24.75;14.45;;;;;;;3.38;75.43;98389.19;341513;28;1654;-75
2022/12/10 00:52:26;;;;;;;23.35;14.15;;;;;;;3.39;75.65;98396.03;340914;28;1559;-74
2022/12/10 00:52:38;;;;;;;23.13;13.70;;;;;;;3.41;75.41;98394.25;341483;28;1035;-75
2022/12/10 00:52:50;;;;;;;22.70;13.40;;;;;;;3.41;75.34;98394.25;341262;28;1693;-74
2022/12/10 00:53:02;;;;;;;22.77;13.52;;;;;;;3.42;75.50;98395.97;342354;28;1233;-74
2022/12/10 00:53:14;;;;;;;22.75;13.52;;;;;;;3.44;75.29;98389.06;342460;28;1993;-74
2022/12/10 00:53:27;;;;;;;22.70;13.43;;;;;;;3.44;75.57;98391.63;341065;28;1221;-75
2022/12/10 00:53:41;;;;;;;22.70;13.75;;;;;;;3.46;75.67;98391.56;341227;28;1014;-73
2022/12/10 00:53:54;;;;;;;22.00;13.68;;;;;;;3.45;75.45;98395.88;340109;28;1657;-72
2022/12/10 00:54:07;;;;;;;22.92;13.70;;;;;;;3.45;75.35;98401.00;340762;28;2198;-73
2022/12/10 00:54:20;;;;;;;22.50;13.63;;;;;;;3.45;75.58;98395.03;340918;29;1223;-72
2022/12/10 00:54:32;;;;;;;22.58;14.05;;;;;;;3.43;75.47;98389.94;340759;29;1483;-74
2022/12/10 00:54:45;;;;;;;23.63;14.00;;;;;;;3.44;75.50;98399.34;339726;29;1032;-77
2022/12/10 00:54:57;;;;;;;24.58;13.73;;;;;;;3.43;75.22;98397.63;339797;29;1182;-74
2022/12/10 00:55:09;;;;;;;24.60;13.73;;;;;;;3.42;75.33;98395.09;339373;29;1035;-77
2022/12/10 00:55:21;;;;;;;23.05;13.65;;;;;;;3.42;75.55;98393.41;340000;29;1034;-76
2022/12/10 00:55:34;;;;;;;22.48;13.70;;;;;;;3.39;75.01;98390.88;338286;29;1858;-74
2022/12/10 00:55:46;;;;;;;24.48;14.25;;;;;;;3.40;75.52;98392.56;337976;29;1358;-75
2022/12/10 00:55:59;;;;;;;26.17;14.07;;;;;;;3.39;75.25;98394.28;338604;29;1011;-78
2022/12/10 00:56:13;;;;;;;23.63;13.98;;;;;;;3.39;75.30;98396.03;338482;29;1246;-75
2022/12/10 00:56:29;;;;;;;22.13;13.93;;;;;;;3.39;75.40;98396.03;340507;29;1299;-74
2022/12/10 00:56:41;;;;;;;22.17;13.75;;;;;;;3.37;75.49;98402.91;338516;29;1278;-76
2022/12/10 00:56:53;;;;;;;22.83;13.43;;;;;;;3.37;75.51;98395.22;339971;29;1304;-76
2022/12/10 00:57:05;;;;;;;23.08;13.20;;;;;;;3.33;75.08;98397.00;338451;29;1079;-77
2022/12/10 00:57:17;;;;;;;22.65;13.25;;;;;;;3.34;75.57;98395.28;338896;29;1192;-74
2022/12/10 00:57:29;;;;;;;22.05;13.50;;;;;;;3.33;75.40;98401.31;339671;29;1480;-74
2022/12/10 00:57:41;;;;;;;21.60;13.20;;;;;;;3.33;75.35;98398.75;340733;29;1079;-74
2022/12/10 00:57:53;;;;;;;21.38;12.77;;;;;;;3.33;75.45;98396.16;341468;29;1079;-75
2022/12/10 00:58:05;;;;;;;23.23;12.95;;;;;;;3.31;75.19;98393.63;341105;29;1058;-74
2022/12/10 00:58:17;;;;;;;23.00;13.10;;;;;;;3.30;75.40;98396.22;340947;29;1247;-75
2022/12/10 00:58:31;;;;;;;22.90;13.50;;;;;;;3.29;75.77;98389.41;340158;29;1313;-77
2022/12/10 00:58:43;;;;;;;22.05;13.27;;;;;;;3.29;75.25;98391.97;339719;29;1615;-74
2022/12/10 00:58:56;;;;;;;22.90;13.15;;;;;;;3.28;75.77;98393.72;339700;29;1263;-74
2022/12/10 00:59:08;;;;;;;22.23;13.05;;;;;;;3.28;75.78;98397.97;340468;29;1004;-75
2022/12/10 00:59:20;;;;;;;21.85;12.70;;;;;;;3.28;75.26;98395.41;340952;29;1727;-74
2022/12/10 00:59:32;;;;;;;20.98;12.57;;;;;;;3.28;75.63;98397.97;341137;29;1070;-74
2022/12/10 00:59:44;;;;;;;21.85;13.00;;;;;;;3.27;75.51;98401.44;340592;29;1456;-78
2022/12/10 00:59:56;;;;;;;23.52;13.70;;;;;;;3.26;75.49;98395.47;340534;29;1644;-73
2022/12/10 01:00:09;;;;;;;24.13;13.20;;;;;;;3.27;75.47;98401.44;340948;29;1107;-75
2022/12/10 01:00:22;;;;;;;23.02;13.07;;;;;;;3.26;75.66;98404.88;340689;29;1156;-75
2022/12/10 01:00:34;;;;;;;22.17;13.32;;;;;;;3.25;75.46;98398.06;342284;28;1236;-74
2022/12/10 01:00:47;;;;;;;22.35;13.43;;;;;;;3.24;75.30;98402.38;342086;28;2934;-73
2022/12/10 01:01:17;;;;;;;22.40;13.52;;;;;;;3.22;75.66;98409.28;341339;29;773;-74
2022/12/10 01:01:35;;;;;;;20.45;13.00;;;;;;;3.17;75.84;98391.38;339695;29;1291;-74
2022/12/10 01:01:47;;;;;;;21.35;13.20;;;;;;;3.19;75.68;98397.31;339535;29;1940;-77